Time,TemperatureF,DewpointF,PressureIn,WindDirection,WindDirectionDegrees,WindSpeedMPH,WindSpeedGustMPH,Humidity,HourlyPrecipIn,Conditions,Clouds,dailyrainin,SoftwareType,DateUTC
2013-06-27 00:01:00,71.0,36.0,-100.00,South,188,2.0,4.0,27,0.00,,,-99.99,,2013-06-27 06:01:00,
2013-06-27 00:43:00,70.0,35.0,-100.00,SW,223,3.0,4.0,28,0.00,,,-99.99,,2013-06-27 06:43:00,
2013-06-27 00:53:00,69.0,36.0,-100.00,SSW,205,1.0,2.0,29,0.00,,,-99.99,,2013-06-27 06:53:00,
2013-06-27 01:12:00,69.0,35.0,-100.00,SSW,213,4.0,6.0,28,0.00,,,-99.99,,2013-06-27 07:12:00,
2013-06-27 01:33:00,69.0,36.0,-100.00,South,189,7.0,9.0,30,0.00,,,-99.99,,2013-06-27 07:33:00,
2013-06-27 01:42:00,68.0,36.0,-100.00,SW,216,4.0,7.0,30,0.00,,,-99.99,,2013-06-27 07:42:00,
2013-06-27 01:52:00,70.0,35.0,-100.00,SSW,200,8.0,11.0,28,0.00,,,-99.99,,2013-06-27 07:52:00,
2013-06-27 02:11:00,68.0,35.0,-100.00,South,169,3.0,4.0,29,0.00,,,-99.99,,2013-06-27 08:11:00,
2013-06-27 02:43:00,68.0,34.0,-100.00,SSW,195,2.0,4.0,28,0.00,,,-99.99,,2013-06-27 08:43:00,
2013-06-27 03:02:00,67.0,34.0,-100.00,SW,222,1.0,2.0,29,0.00,,,-99.99,,2013-06-27 09:02:00,
2013-06-27 03:43:00,65.0,34.0,-100.00,WNW,302,1.0,2.0,32,0.00,,,-99.99,,2013-06-27 09:43:00,
2013-06-27 04:01:00,66.0,34.0,-100.00,SSE,155,3.0,4.0,30,0.00,,,-99.99,,2013-06-27 10:01:00,
2013-06-27 04:11:00,66.0,35.0,-100.00,ESE,123,2.0,2.0,31,0.00,,,-99.99,,2013-06-27 10:11:00,
2013-06-27 04:32:00,66.0,34.0,-100.00,West,277,1.0,2.0,30,0.00,,,-99.99,,2013-06-27 10:32:00,
2013-06-27 04:43:00,64.0,34.0,-100.00,SW,227,1.0,2.0,32,0.00,,,-99.99,,2013-06-27 10:43:00,
2013-06-27 05:43:00,65.0,35.0,-100.00,SSW,213,5.0,8.0,33,0.00,,,-99.99,,2013-06-27 11:43:00,
2013-06-27 06:42:00,64.0,36.0,-100.00,SSW,205,2.0,3.0,36,0.00,,,-99.99,,2013-06-27 12:42:00,
2013-06-27 07:43:00,68.0,40.0,-100.00,South,172,1.0,2.0,36,0.00,,,-99.99,,2013-06-27 13:43:00,
2013-06-27 08:43:00,72.0,40.0,-100.00,NE,40,1.0,2.0,30,0.00,,,-99.99,,2013-06-27 14:43:00,
2013-06-27 09:01:00,72.0,38.0,-100.00,East,82,3.0,4.0,28,0.00,,,-99.99,,2013-06-27 15:01:00,
2013-06-27 09:42:00,75.0,37.0,-100.00,ESE,107,2.0,5.0,25,0.00,,,-99.99,,2013-06-27 15:42:00,
2013-06-27 10:43:00,79.0,36.0,-100.00,SSE,150,2.0,4.0,21,0.00,,,-99.99,,2013-06-27 16:43:00,
2013-06-27 11:11:00,80.0,35.0,-100.00,ENE,76,3.0,8.0,20,0.00,,,-99.99,,2013-06-27 17:11:00,
2013-06-27 11:43:00,80.0,36.0,-100.00,NNW,344,4.0,8.0,20,0.00,,,-99.99,,2013-06-27 17:43:00,
2013-06-27 12:01:00,81.0,35.0,-100.00,ENE,71,6.0,8.0,19,0.00,,,-99.99,,2013-06-27 18:01:00,
2013-06-27 12:44:00,83.0,31.0,-100.00,NW,309,10.0,16.0,16,0.00,,,-99.99,,2013-06-27 18:44:00,
2013-06-27 13:42:00,87.0,31.0,-100.00,WNW,284,15.0,21.0,13,0.00,,,-99.99,,2013-06-27 19:42:00,
2013-06-27 14:45:00,88.0,30.0,-100.00,West,281,17.0,21.0,12,0.00,,,-99.99,,2013-06-27 20:45:00,
2013-06-27 15:13:00,89.0,32.0,-100.00,West,264,12.0,17.0,13,0.00,,,-99.99,,2013-06-27 21:13:00,
2013-06-27 15:45:00,89.0,32.0,-100.00,West,271,12.0,18.0,13,0.00,,,-99.99,,2013-06-27 21:45:00,
2013-06-27 16:05:00,86.0,31.0,-100.00,NW,308,10.0,14.0,13,0.00,,,-99.99,,2013-06-27 22:05:00,
2013-06-27 16:46:00,87.0,31.0,-100.00,SW,217,12.0,14.0,13,0.00,,,-99.99,,2013-06-27 22:46:00,
2013-06-27 17:03:00,90.0,34.0,-100.00,WSW,258,15.0,18.0,14,0.00,,,-99.99,,2013-06-27 23:03:00,
2013-06-27 17:34:00,90.0,34.0,-100.00,WSW,256,10.0,12.0,14,0.00,,,-99.99,,2013-06-27 23:34:00,
2013-06-27 17:44:00,90.0,35.0,-100.00,WSW,254,7.0,10.0,15,0.00,,,-99.99,,2013-06-27 23:44:00,
2013-06-27 17:54:00,90.0,34.0,-100.00,WSW,241,11.0,13.0,14,0.00,,,-99.99,,2013-06-27 23:54:00,
2013-06-27 18:13:00,90.0,34.0,-100.00,WSW,254,11.0,16.0,14,0.00,,,-99.99,,2013-06-28 00:13:00,
2013-06-27 18:44:00,88.0,32.0,-100.00,WNW,287,10.0,12.0,14,0.00,,,-99.99,,2013-06-28 00:44:00,
2013-06-27 19:13:00,88.0,34.0,-100.00,West,264,9.0,12.0,14,0.00,,,-99.99,,2013-06-28 01:13:00,
2013-06-27 19:23:00,88.0,34.0,-100.00,West,274,5.0,7.0,15,0.00,,,-99.99,,2013-06-28 01:23:00,
2013-06-27 19:35:00,88.0,33.0,-100.00,West,274,9.0,11.0,14,0.00,,,-99.99,,2013-06-28 01:35:00,
2013-06-27 19:45:00,88.0,32.0,-100.00,WNW,287,7.0,9.0,13,0.00,,,-99.99,,2013-06-28 01:45:00,
2013-06-27 20:04:00,87.0,33.0,-100.00,WNW,291,6.0,7.0,15,0.00,,,-99.99,,2013-06-28 02:04:00,
2013-06-27 20:15:00,86.0,33.0,-100.00,West,267,7.0,9.0,15,0.00,,,-99.99,,2013-06-28 02:15:00,
2013-06-27 21:14:00,81.0,34.0,-100.00,North,1,3.0,5.0,18,0.00,,,-99.99,,2013-06-28 03:14:00,
2013-06-27 21:44:00,79.0,34.0,-100.00,NNE,31,1.0,1.0,20,0.00,,,-99.99,,2013-06-28 03:44:00,
2013-06-27 22:02:00,79.0,34.0,-100.00,NNE,21,3.0,4.0,19,0.00,,,-99.99,,2013-06-28 04:02:00,
2013-06-27 22:11:00,78.0,35.0,-100.00,SW,226,1.0,1.0,21,0.00,,,-99.99,,2013-06-28 04:11:00,
2013-06-27 22:43:00,78.0,35.0,-100.00,NNE,24,4.0,5.0,20,0.00,,,-99.99,,2013-06-28 04:43:00,
2013-06-27 23:43:00,76.0,35.0,-100.00,WNW,285,4.0,6.0,22,0.00,,,-99.99,,2013-06-28 05:43:00,